createdAt,value
2018-11-22T00:05:21.110Z,84.49
2018-11-22T00:11:25.743Z,84.86
2018-11-22T00:17:30.369Z,84.82
2018-11-22T00:23:35.014Z,84.96
2018-11-22T00:29:39.671Z,84.79
2018-11-22T00:35:44.296Z,84.72
2018-11-22T00:41:48.912Z,84.81
2018-11-22T00:47:53.557Z,84.42
2018-11-22T00:53:58.213Z,84.33
2018-11-22T01:00:02.875Z,84.16
2018-11-22T01:06:07.520Z,83.58
2018-11-22T01:12:12.170Z,83.78
2018-11-22T01:18:16.849Z,83.52
2018-11-22T01:24:21.492Z,83.46
2018-11-22T01:30:26.726Z,83.49
2018-11-22T01:36:31.373Z,83.87
2018-11-22T01:42:36.024Z,84.36
2018-11-22T01:48:40.639Z,84.29
2018-11-22T01:54:45.253Z,84.26
2018-11-22T02:00:49.986Z,84.85
2018-11-22T02:06:54.614Z,84.88
2018-11-22T02:12:59.241Z,84.72
2018-11-22T02:19:03.888Z,84.78
2018-11-22T02:25:09.979Z,84.81
2018-11-22T02:31:14.631Z,84.96
2018-11-22T02:37:19.271Z,84.67
2018-11-22T02:43:23.888Z,84.37
2018-11-22T02:49:28.588Z,85.12
2018-11-22T02:55:33.253Z,84.92
2018-11-22T03:01:37.911Z,84.85
2018-11-22T03:07:42.591Z,84.78
2018-11-22T03:13:47.204Z,84.64
2018-11-22T03:19:51.837Z,84.99
2018-11-22T03:25:56.500Z,83.94
2018-11-22T03:32:01.141Z,83.98
2018-11-22T03:38:06.014Z,84.57
2018-11-22T03:44:10.657Z,84.95
2018-11-22T03:50:17.651Z,84.93
2018-11-22T03:56:22.265Z,84.92
2018-11-22T04:02:26.842Z,85.34
2018-11-22T04:08:31.430Z,85.43
2018-11-22T04:14:38.975Z,85.53
2018-11-22T04:20:43.583Z,85.44
2018-11-22T04:26:48.141Z,85.59
2018-11-22T04:32:53.215Z,85.44
2018-11-22T04:38:57.777Z,85.47
2018-11-22T04:45:02.330Z,85.35
2018-11-22T04:51:07.152Z,85.61
2018-11-22T04:57:11.696Z,85.47
2018-11-22T05:03:16.272Z,85.09
2018-11-22T05:09:20.844Z,85.45
2018-11-22T05:15:27.114Z,85.16
2018-11-22T05:21:31.615Z,85.47
2018-11-22T05:27:36.208Z,85.12
2018-11-22T05:33:41.127Z,85.02
2018-11-22T05:39:46.683Z,85.10
2018-11-22T05:45:51.238Z,85.25
2018-11-22T05:51:57.389Z,85.33
2018-11-22T05:58:02.162Z,84.60
2018-11-22T12:21:24.137Z,79.16
2018-11-22T12:27:29.155Z,79.79
2018-11-22T12:33:40.270Z,79.55
2018-11-22T12:39:45.023Z,80.33
2018-11-22T12:45:50.272Z,81.60
2018-11-22T12:51:55.294Z,82.06
2018-11-22T12:57:59.989Z,82.80
2018-11-22T13:04:04.708Z,82.93
2018-11-22T13:10:12.573Z,82.58
2018-11-22T13:16:17.609Z,82.84
2018-11-22T13:22:22.234Z,82.37
2018-11-22T13:28:27.196Z,82.38
2018-11-22T13:34:31.860Z,82.28
2018-11-22T13:40:36.588Z,82.99
2018-11-22T13:46:41.895Z,83.34
2018-11-22T13:52:48.183Z,83.17
2018-11-22T13:58:52.961Z,83.21
2018-11-22T14:04:57.721Z,83.37
2018-11-22T14:11:02.389Z,82.66
2018-11-22T14:17:07.813Z,83.32
2018-11-22T14:23:12.467Z,83.56
2018-11-22T14:29:17.907Z,84.28
2018-11-22T14:35:23.308Z,83.81
2018-11-22T14:41:28.393Z,83.92
2018-11-22T14:47:33.201Z,84.74
2018-11-22T14:53:37.943Z,85.29
2018-11-22T14:59:43.020Z,85.34
2018-11-22T15:05:47.723Z,85.52
2018-11-22T15:11:53.089Z,85.65
2018-11-22T15:17:57.754Z,85.74
2018-11-22T15:24:02.452Z,87.49
2018-11-22T15:30:10.689Z,86.80
2018-11-22T15:36:15.363Z,86.52
2018-11-22T15:42:20.077Z,85.35
2018-11-22T15:48:24.786Z,86.95
2018-11-22T15:54:30.099Z,87.28
2018-11-22T16:00:35.694Z,87.02
2018-11-22T16:06:40.402Z,87.16
2018-11-22T16:12:45.889Z,86.28
2018-11-22T16:18:51.167Z,87.01
2018-11-22T16:24:55.850Z,86.45
2018-11-22T16:31:00.806Z,86.41
2018-11-22T16:37:05.586Z,86.47
2018-11-22T16:43:10.966Z,86.21
2018-11-22T16:49:15.767Z,86.48
2018-11-22T16:55:21.303Z,86.53
2018-11-22T17:01:27.811Z,86.14
2018-11-22T17:07:31.486Z,86.13
2018-11-22T17:13:36.228Z,86.13
2018-11-22T17:19:40.891Z,87.21
2018-11-22T17:25:45.622Z,86.55
2018-11-22T17:31:50.952Z,86.67
2018-11-22T17:37:57.519Z,86.90
2018-11-22T17:44:02.276Z,86.24
2018-11-22T17:50:09.766Z,86.35
2018-11-22T17:56:14.534Z,86.62
2018-11-22T18:02:19.644Z,86.77
2018-11-22T18:08:24.820Z,87.46
2018-11-22T18:14:30.232Z,86.68
2018-11-22T18:20:34.909Z,87.12
2018-11-22T18:26:39.628Z,87.29
2018-11-22T18:32:45.378Z,86.65
2018-11-22T18:38:50.322Z,86.98
2018-11-22T18:44:55.295Z,86.18
2018-11-22T18:50:59.958Z,86.31
2018-11-22T18:57:05.050Z,86.84
2018-11-22T19:03:17.231Z,86.87
2018-11-22T19:09:22.346Z,87.24
2018-11-22T19:15:28.425Z,87.23
2018-11-22T19:21:33.099Z,86.06
2018-11-22T19:27:38.903Z,86.35
2018-11-22T19:33:43.966Z,86.71
2018-11-22T19:39:48.677Z,86.75
2018-11-22T19:45:53.397Z,86.58
2018-11-22T19:51:58.741Z,86.35
2018-11-22T19:58:04.770Z,86.49
2018-11-22T20:04:09.462Z,86.08
2018-11-22T20:10:18.554Z,86.43
2018-11-22T20:16:23.582Z,86.61
2018-11-22T20:22:28.585Z,86.98
2018-11-22T20:28:33.615Z,86.96
2018-11-22T20:34:38.491Z,87.03
2018-11-22T20:40:43.122Z,87.46
2018-11-22T20:46:48.182Z,87.48
2018-11-22T20:52:53.428Z,87.07
2018-11-22T20:58:58.154Z,87.35
2018-11-22T21:05:02.853Z,86.83
2018-11-22T21:11:08.348Z,87.73
2018-11-22T21:17:13.041Z,87.18
2018-11-22T21:23:17.696Z,87.51
2018-11-22T21:29:22.605Z,87.60
2018-11-22T21:35:28.073Z,87.97
2018-11-22T21:41:32.783Z,87.28
2018-11-22T21:47:37.788Z,87.66
2018-11-22T21:53:42.569Z,87.03
2018-11-22T21:59:47.222Z,87.20
2018-11-22T22:05:51.867Z,86.82
2018-11-22T22:11:56.535Z,86.92
2018-11-22T22:18:01.288Z,87.13
2018-11-22T22:24:07.146Z,88.22
2018-11-22T22:30:14.961Z,87.29
2018-11-22T22:36:20.022Z,87.20
2018-11-22T22:42:24.770Z,87.63
2018-11-22T22:48:29.722Z,87.79
2018-11-22T22:54:34.658Z,87.12
2018-11-22T23:00:42.169Z,87.86
2018-11-22T23:06:46.894Z,86.97
2018-11-22T23:12:51.732Z,87.53
2018-11-22T23:18:57.252Z,87.94
2018-11-22T23:25:01.934Z,88.10
2018-11-22T23:31:06.905Z,87.47
2018-11-22T23:37:11.593Z,88.24
2018-11-22T23:43:16.238Z,87.65
2018-11-22T23:49:20.919Z,87.91
2018-11-22T23:55:25.675Z,87.93
